Terminal Aerodrome Forecast
Issued by NWS

Home | Current Version | Previous Version | Text Only | Print | Product List | Glossary Off
Versions: 1 2 3 4 5 6 7 8 9 10 11 12 13 14 15 16 17 18 19 20 21 22 23 24 25 26 27 28 29 30 31 32 33 34 35 36 37

000
FTUS43 KGRB 181700
TAFRHI
TAF
KRHI 181723Z 1818/1918 18006KT P6SM OVC012
     FM182100 17006KT P6SM BKN020
     FM190600 17004KT 4SM BR BKN008
     FM190800 18003KT 4SM BR BKN005 WS015/22035KT
     FM191500 19012G18KT P6SM SCT006 BKN200=

USA.gov is the U.S. government's official web portal to all federal, state and local government web resources and services.